Time;durP1;ratioP1;P1;durP2;ratioP2;P2;SDS_P1;SDS_P2;PMS_P1;PMS_P2;Temp;Humidity;BMP_temperature;BMP_pressure;BME280_temperature;BME280_humidity;BME280_pressure;Samples;Min_cycle;Max_cycle;Signal;HPM_P1;HPM_P2
2023/11/06 00:00:50;;;;;;;6.57;2.50;;;10.20;88.20;;;;;;9164040;19;20015;-72
2023/11/06 00:03:58;;;;;;;9.40;3.17;;;10.20;88.30;;;;;;9165304;19;20369;-73
2023/11/06 00:07:06;;;;;;;12.80;3.35;;;10.20;88.30;;;;;;9160596;19;20025;-72
2023/11/06 00:10:12;;;;;;;10.95;2.63;;;10.20;88.30;;;;;;9160030;19;20018;-71
2023/11/06 00:13:19;;;;;;;11.38;3.05;;;10.30;88.40;;;;;;9164381;19;20018;-69
2023/11/06 00:16:25;;;;;;;8.13;2.92;;;10.20;88.30;;;;;;9165755;19;20014;-73
2023/11/06 00:19:37;;;;;;;11.55;3.78;;;10.30;88.40;;;;;;9161602;19;20488;-71
2023/11/06 00:22:43;;;;;;;8.48;2.95;;;10.30;88.50;;;;;;9164526;19;20029;-69
2023/11/06 00:25:50;;;;;;;7.32;3.20;;;10.30;88.40;;;;;;9164938;19;20015;-71
2023/11/06 00:28:56;;;;;;;7.32;4.00;;;10.30;88.40;;;;;;9162344;19;20030;-69
2023/11/06 00:32:03;;;;;;;6.38;3.40;;;10.40;88.40;;;;;;9163908;19;20011;-69
2023/11/06 00:35:12;;;;;;;12.10;3.40;;;10.40;88.40;;;;;;9165143;19;20116;-69
2023/11/06 00:38:20;;;;;;;13.38;3.50;;;10.40;88.50;;;;;;9163601;19;20011;-71
2023/11/06 00:41:25;;;;;;;14.07;3.50;;;10.40;88.50;;;;;;9163945;19;20022;-70
2023/11/06 00:44:32;;;;;;;7.35;3.22;;;10.40;88.50;;;;;;9161229;19;20042;-69
2023/11/06 00:47:38;;;;;;;12.38;3.65;;;10.40;88.50;;;;;;9161057;19;20039;-71
2023/11/06 00:50:48;;;;;;;10.30;3.70;;;10.40;88.50;;;;;;9161123;19;20037;-70
2023/11/06 00:53:53;;;;;;;15.55;4.18;;;10.40;88.50;;;;;;9163003;19;20053;-70
2023/11/06 00:57:01;;;;;;;7.55;3.63;;;10.50;89.20;;;;;;9158619;19;20029;-71
2023/11/06 01:00:10;;;;;;;14.15;3.95;;;10.50;88.60;;;;;;9162755;19;20018;-72
2023/11/06 01:03:18;;;;;;;10.68;3.75;;;10.50;88.60;;;;;;9160838;19;20018;-71
2023/11/06 01:06:26;;;;;;;8.98;3.28;;;10.50;88.60;;;;;;9161393;19;20060;-72
2023/11/06 01:09:34;;;;;;;10.20;3.28;;;10.50;88.70;;;;;;9161803;19;20011;-72
2023/11/06 01:12:39;;;;;;;9.00;3.55;;;10.60;88.70;;;;;;9162289;19;20693;-71
2023/11/06 01:15:48;;;;;;;12.80;2.97;;;10.60;89.20;;;;;;9157843;19;20882;-71
2023/11/06 01:18:53;;;;;;;8.88;3.08;;;10.60;88.70;;;;;;9162775;19;20562;-72
2023/11/06 01:22:04;;;;;;;13.93;3.58;;;10.60;88.60;;;;;;9159504;19;20709;-72
2023/11/06 01:25:12;;;;;;;10.20;3.22;;;10.60;88.60;;;;;;9162134;19;20639;-72
2023/11/06 01:28:19;;;;;;;11.25;4.50;;;10.60;88.60;;;;;;9161622;19;20022;-70
2023/11/06 01:31:26;;;;;;;11.40;3.67;;;10.70;88.60;;;;;;9161083;19;20423;-69
2023/11/06 01:34:34;;;;;;;9.35;3.38;;;10.70;89.10;;;;;;9157376;19;20020;-74
2023/11/06 01:37:42;;;;;;;10.00;3.58;;;10.70;88.80;;;;;;9160796;19;20396;-71
2023/11/06 01:40:50;;;;;;;11.93;3.10;;;10.70;88.60;;;;;;9160575;19;20415;-70
2023/11/06 01:43:56;;;;;;;6.13;3.15;;;10.70;88.60;;;;;;9162151;19;20019;-70
2023/11/06 01:47:03;;;;;;;7.00;2.40;;;10.70;88.60;;;;;;9161048;19;20480;-70
2023/11/06 01:50:10;;;;;;;8.45;3.28;;;10.70;88.60;;;;;;9161064;19;20018;-69
2023/11/06 01:53:22;;;;;;;7.18;2.45;;;10.70;88.60;;;;;;9161988;19;20673;-70
2023/11/06 01:56:30;;;;;;;8.35;2.22;;;10.70;88.60;;;;;;9155158;19;20074;-71
2023/11/06 01:59:38;;;;;;;9.52;3.22;;;10.70;88.60;;;;;;9159369;19;20010;-71
2023/11/06 02:02:45;;;;;;;4.25;2.40;;;10.70;88.60;;;;;;9161896;19;20082;-70
2023/11/06 02:05:53;;;;;;;7.57;2.47;;;10.70;88.70;;;;;;9156673;19;20019;-69
2023/11/06 02:09:03;;;;;;;6.25;2.35;;;10.70;88.60;;;;;;9159627;19;20028;-69
2023/11/06 02:12:11;;;;;;;12.05;1.92;;;10.70;88.60;;;;;;9155666;19;20077;-73
2023/11/06 02:15:17;;;;;;;12.00;1.75;;;10.70;88.60;;;;;;9158660;19;20011;-74
2023/11/06 02:18:24;;;;;;;5.32;2.08;;;10.70;88.60;;;;;;9157752;19;20082;-71
2023/11/06 02:21:31;;;;;;;9.18;1.90;;;10.70;88.60;;;;;;9159713;19;20014;-73
2023/11/06 02:24:51;;;;;;;9.23;2.45;;;10.70;88.60;;;;;;9159288;19;20018;-72
2023/11/06 02:27:56;;;;;;;13.35;2.55;;;10.70;88.60;;;;;;9161171;19;20024;-71
2023/11/06 02:31:04;;;;;;;10.93;1.75;;;10.70;88.60;;;;;;9156422;19;20490;-70
2023/11/06 02:34:09;;;;;;;6.97;1.80;;;10.70;88.60;;;;;;9159496;19;20022;-70
2023/11/06 02:37:17;;;;;;;5.05;1.80;;;10.70;88.50;;;;;;9158182;19;20014;-73
2023/11/06 02:40:26;;;;;;;6.57;1.90;;;10.80;88.60;;;;;;9160849;19;20049;-71
2023/11/06 02:43:34;;;;;;;11.95;1.88;;;10.70;88.60;;;;;;9157368;19;20022;-73
2023/11/06 02:46:39;;;;;;;5.75;1.52;;;10.70;88.40;;;;;;9160570;19;20732;-70
2023/11/06 02:49:47;;;;;;;7.25;1.75;;;10.70;88.40;;;;;;9160760;19;20018;-72
2023/11/06 02:52:55;;;;;;;6.82;1.55;;;10.70;88.50;;;;;;9158925;19;20024;-72
2023/11/06 02:56:06;;;;;;;5.55;1.40;;;10.70;88.50;;;;;;9163986;19;20578;-70
2023/11/06 02:59:11;;;;;;;7.80;2.20;;;10.70;88.50;;;;;;9167938;19;20735;-70
2023/11/06 03:02:19;;;;;;;10.98;1.77;;;10.70;88.50;;;;;;9165860;19;20603;-73
2023/11/06 03:05:24;;;;;;;18.63;1.80;;;10.70;88.50;;;;;;9168669;19;20014;-71
2023/11/06 03:08:32;;;;;;;7.80;2.10;;;10.70;88.30;;;;;;9161915;19;20018;-70
2023/11/06 03:11:40;;;;;;;7.47;1.88;;;10.70;88.50;;;;;;9162546;19;20041;-71
2023/11/06 03:14:47;;;;;;;7.35;2.40;;;10.70;88.50;;;;;;9168208;19;20022;-71
2023/11/06 03:17:52;;;;;;;9.25;2.55;;;10.70;88.40;;;;;;9165514;19;20146;-71
2023/11/06 03:21:00;;;;;;;5.55;2.50;;;10.70;88.50;;;;;;9169358;19;20030;-69
2023/11/06 03:24:07;;;;;;;6.75;2.50;;;10.70;88.50;;;;;;9164770;19;20484;-72
2023/11/06 03:27:17;;;;;;;6.00;3.03;;;10.70;88.40;;;;;;9167761;19;20019;-70
2023/11/06 03:30:25;;;;;;;10.38;3.00;;;10.70;88.40;;;;;;9165380;19;20019;-69
2023/11/06 03:33:33;;;;;;;7.43;3.20;;;10.70;88.50;;;;;;9166446;19;20507;-74
2023/11/06 03:36:45;;;;;;;3.67;2.92;;;10.70;88.50;;;;;;9165026;19;20015;-73
2023/11/06 03:39:53;;;;;;;5.82;3.28;;;10.70;88.50;;;;;;9164841;19;21614;-72
2023/11/06 03:43:01;;;;;;;6.20;2.90;;;10.70;88.60;;;;;;9167170;19;20007;-70
2023/11/06 03:46:08;;;;;;;6.10;2.80;;;10.70;88.50;;;;;;9165886;19;20021;-70
2023/11/06 03:49:13;;;;;;;7.72;2.97;;;10.70;89.10;;;;;;9162173;19;20097;-70
2023/11/06 03:52:21;;;;;;;7.18;3.58;;;10.70;88.50;;;;;;9160583;19;20025;-70
2023/11/06 03:55:26;;;;;;;8.80;3.78;;;10.70;88.50;;;;;;9160896;19;20068;-70
2023/11/06 03:58:36;;;;;;;8.98;3.88;;;10.70;90.30;;;;;;9165709;19;20018;-70
2023/11/06 04:01:42;;;;;;;10.05;3.95;;;11.30;88.90;;;;;;9164946;19;20020;-71
2023/11/06 04:04:49;;;;;;;9.68;3.92;;;10.70;88.60;;;;;;9158149;19;20260;-70
2023/11/06 04:07:55;;;;;;;4.95;3.20;;;10.60;88.70;;;;;;9162643;19;20018;-72
2023/11/06 04:11:02;;;;;;;11.23;5.05;;;10.70;89.40;;;;;;9162569;19;20016;-70
2023/11/06 04:14:11;;;;;;;12.82;3.95;;;;;;;;;;9163659;19;20583;-70
2023/11/06 04:17:19;;;;;;;8.77;3.78;;;10.60;87.90;;;;;;9165067;19;20589;-71
2023/11/06 04:20:24;;;;;;;13.25;4.53;;;10.60;88.40;;;;;;9164030;19;20052;-70
2023/11/06 04:23:32;;;;;;;9.55;4.25;;;10.60;88.40;;;;;;9163847;19;20353;-71
2023/11/06 04:26:37;;;;;;;10.10;4.15;;;10.60;88.40;;;;;;9163606;19;20556;-72
2023/11/06 04:29:47;;;;;;;10.77;4.80;;;10.60;88.40;;;;;;9166173;19;20239;-71
2023/11/06 04:32:52;;;;;;;10.68;5.22;;;10.60;88.50;;;;;;9160505;19;20018;-70
2023/11/06 04:36:00;;;;;;;5.97;4.25;;;10.60;88.40;;;;;;9166244;19;20030;-69
2023/11/06 04:39:09;;;;;;;14.55;4.93;;;10.60;88.40;;;;;;9162355;19;20018;-70
2023/11/06 04:42:16;;;;;;;19.73;5.25;;;10.60;88.50;;;;;;9164451;19;20925;-71
2023/11/06 04:45:24;;;;;;;8.93;4.40;;;10.70;88.60;;;;;;9165164;19;20054;-71
2023/11/06 04:48:32;;;;;;;11.35;4.47;;;10.60;88.50;;;;;;9163257;19;20018;-70
2023/11/06 04:51:37;;;;;;;16.05;4.45;;;10.70;88.60;;;;;;9162235;19;20275;-71
2023/11/06 04:54:45;;;;;;;12.57;4.55;;;10.70;88.60;;;;;;9159793;19;20010;-70
2023/11/06 04:57:50;;;;;;;7.80;3.92;;;10.70;88.60;;;;;;9163772;19;20042;-71
2023/11/06 05:01:00;;;;;;;14.05;4.25;;;10.70;88.50;;;;;;9160460;19;20018;-69
2023/11/06 05:04:07;;;;;;;15.65;4.35;;;10.70;88.50;;;;;;9163191;19;20022;-71
2023/11/06 05:07:14;;;;;;;12.52;4.18;;;10.70;88.50;;;;;;9161373;19;20015;-69
2023/11/06 05:10:20;;;;;;;10.60;4.07;;;10.70;88.50;;;;;;9164324;19;20828;-71
2023/11/06 05:13:27;;;;;;;9.18;3.47;;;10.70;88.50;;;;;;9160985;19;20344;-69
2023/11/06 05:16:36;;;;;;;10.27;3.72;;;10.70;88.60;;;;;;9162630;19;20019;-71
2023/11/06 05:19:44;;;;;;;11.05;3.50;;;10.70;88.50;;;;;;9164042;19;20014;-69
2023/11/06 05:22:50;;;;;;;10.77;3.97;;;10.70;88.50;;;;;;9163726;19;20390;-71
2023/11/06 05:25:57;;;;;;;11.07;4.03;;;10.70;88.40;;;;;;9163078;19;20022;-70
2023/11/06 05:29:03;;;;;;;13.68;3.83;;;10.70;88.40;;;;;;9163360;19;20019;-70
2023/11/06 05:32:13;;;;;;;8.05;3.20;;;10.70;88.50;;;;;;9161177;19;20021;-69
2023/11/06 05:35:18;;;;;;;13.07;2.97;;;10.80;88.50;;;;;;9162876;19;20014;-70
2023/11/06 05:38:25;;;;;;;13.50;2.92;;;10.70;88.40;;;;;;9160946;19;20021;-71
2023/11/06 05:41:31;;;;;;;9.05;3.30;;;10.80;88.50;;;;;;9161870;19;20784;-71
2023/11/06 05:44:43;;;;;;;7.82;2.65;;;10.70;88.40;;;;;;9163240;19;20468;-71
2023/11/06 05:47:51;;;;;;;10.48;3.00;;;10.70;88.40;;;;;;9160440;19;20022;-71
2023/11/06 05:50:58;;;;;;;7.20;2.60;;;10.80;88.40;;;;;;9160184;19;20086;-71
2023/11/06 05:54:04;;;;;;;8.20;2.38;;;10.70;88.30;;;;;;9158751;19;20061;-70
2023/11/06 05:57:11;;;;;;;6.45;1.90;;;10.70;88.30;;;;;;9154626;19;20014;-72
2023/11/06 06:00:18;;;;;;;7.38;1.98;;;10.70;88.30;;;;;;9161515;19;20383;-70
2023/11/06 06:03:29;;;;;;;5.25;1.30;;;10.70;88.20;;;;;;9161437;19;20025;-68
2023/11/06 06:06:34;;;;;;;9.10;1.80;;;10.70;88.10;;;;;;9162102;19;20065;-69
2023/11/06 06:09:42;;;;;;;5.15;1.67;;;10.60;88.00;;;;;;9157171;19;20480;-72
2023/11/06 06:12:47;;;;;;;6.88;1.30;;;10.70;88.00;;;;;;9159813;19;20015;-70
2023/11/06 06:15:55;;;;;;;9.40;1.75;;;10.60;87.90;;;;;;9160187;19;20108;-71
2023/11/06 06:19:05;;;;;;;6.78;1.42;;;10.60;87.90;;;;;;9159614;19;20021;-69
2023/11/06 06:22:13;;;;;;;6.40;1.42;;;10.60;87.90;;;;;;9159161;19;20025;-69
2023/11/06 06:25:18;;;;;;;4.05;1.20;;;10.60;88.00;;;;;;9161613;19;20031;-70
2023/11/06 06:28:26;;;;;;;6.85;1.20;;;10.50;88.00;;;;;;9158351;19;20013;-70
2023/11/06 06:31:31;;;;;;;4.82;1.08;;;10.50;88.00;;;;;;9167721;19;20380;-70
2023/11/06 06:34:41;;;;;;;4.65;1.42;;;10.50;87.90;;;;;;9170995;19;20029;-70
2023/11/06 06:37:47;;;;;;;4.28;1.38;;;10.50;87.90;;;;;;9167359;19;20553;-71
2023/11/06 06:40:54;;;;;;;5.68;1.30;;;10.40;87.90;;;;;;9168531;19;20015;-69
2023/11/06 06:44:00;;;;;;;5.68;1.00;;;10.40;87.90;;;;;;9170456;19;20026;-71
2023/11/06 06:47:08;;;;;;;8.98;1.40;;;10.40;88.00;;;;;;9168534;19;20034;-70
2023/11/06 06:50:16;;;;;;;9.07;1.05;;;10.30;88.40;;;;;;9168145;19;20021;-71
2023/11/06 06:53:24;;;;;;;1.50;0.70;;;10.30;87.90;;;;;;9163785;19;20018;-70
2023/11/06 06:56:31;;;;;;;6.30;1.30;;;10.30;87.90;;;;;;9163475;19;20010;-72
2023/11/06 06:59:39;;;;;;;8.50;1.63;;;10.30;87.90;;;;;;9169571;19;20010;-67
2023/11/06 07:02:44;;;;;;;6.82;1.35;;;10.20;87.80;;;;;;9167440;19;20745;-67
2023/11/06 07:05:54;;;;;;;3.85;1.10;;;10.20;87.80;;;;;;9168172;19;20014;-66
2023/11/06 07:09:00;;;;;;;8.20;1.15;;;10.20;87.80;;;;;;9165562;19;20977;-68
2023/11/06 07:12:08;;;;;;;2.83;1.25;;;10.30;87.90;;;;;;9160092;19;20610;-65
2023/11/06 07:15:13;;;;;;;8.27;1.10;;;10.10;87.70;;;;;;9166838;19;20102;-68
2023/11/06 07:18:21;;;;;;;8.00;1.63;;;10.20;87.90;;;;;;9148946;19;20010;-67
2023/11/06 07:21:30;;;;;;;17.13;1.50;;;10.10;87.80;;;;;;9167405;19;20014;-68
2023/11/06 07:24:38;;;;;;;5.30;1.45;;;10.10;87.90;;;;;;9159023;19;20029;-67
2023/11/06 07:27:43;;;;;;;6.15;1.60;;;10.10;87.90;;;;;;9165366;19;20019;-66
2023/11/06 07:30:51;;;;;;;8.75;1.70;;;10.10;88.00;;;;;;9162893;19;20018;-69
2023/11/06 07:33:56;;;;;;;5.03;1.60;;;10.10;88.00;;;;;;9163606;19;20014;-66
2023/11/06 07:37:06;;;;;;;14.13;2.10;;;10.10;88.00;;;;;;9166026;19;20018;-69
2023/11/06 07:40:13;;;;;;;8.95;1.75;;;10.10;88.10;;;;;;9163026;19;20029;-70
2023/11/06 07:43:21;;;;;;;10.02;2.47;;;10.10;88.10;;;;;;9165874;19;20799;-71
2023/11/06 07:46:26;;;;;;;10.85;2.40;;;10.10;88.10;;;;;;9166838;19;20045;-70
2023/11/06 07:49:34;;;;;;;8.80;1.90;;;10.20;88.20;;;;;;9164023;19;20045;-68
2023/11/06 07:52:42;;;;;;;6.65;2.45;;;10.20;88.20;;;;;;9164254;19;20011;-70
2023/11/06 07:55:50;;;;;;;5.20;1.70;;;10.20;88.20;;;;;;9160423;19;20015;-71
2023/11/06 07:58:55;;;;;;;9.35;1.88;;;10.20;88.20;;;;;;9166281;19;20380;-70
2023/11/06 08:02:04;;;;;;;11.55;2.20;;;10.30;89.30;;;;;;9165585;19;20049;-71
2023/11/06 08:05:11;;;;;;;7.82;1.90;;;10.50;88.60;;;;;;9167404;19;20466;-69
2023/11/06 08:08:21;;;;;;;15.38;2.47;;;10.30;88.50;;;;;;9164560;19;20392;-69
2023/11/06 08:11:26;;;;;;;5.72;1.73;;;10.40;89.50;;;;;;9164530;19;20464;-69
2023/11/06 08:14:35;;;;;;;10.30;2.60;;;10.30;89.10;;;;;;9163832;19;20095;-70
2023/11/06 08:17:41;;;;;;;17.65;2.63;;;10.40;89.50;;;;;;9166619;19;20013;-70
2023/11/06 08:20:48;;;;;;;9.50;2.05;;;10.40;89.90;;;;;;9166674;19;20021;-70
2023/11/06 08:23:57;;;;;;;10.23;1.75;;;10.60;89.50;;;;;;9165483;19;20007;-70
2023/11/06 08:27:04;;;;;;;11.07;1.98;;;10.40;88.30;;;;;;9164853;19;20021;-69
2023/11/06 08:30:12;;;;;;;8.90;2.30;;;10.40;88.30;;;;;;9166507;19;20056;-70
2023/11/06 08:33:20;;;;;;;14.38;2.83;;;10.50;88.40;;;;;;9165859;19;20030;-70
2023/11/06 08:36:26;;;;;;;13.30;2.28;;;10.50;88.40;;;;;;9165906;19;20025;-71
2023/11/06 08:39:38;;;;;;;8.57;2.10;;;10.40;88.20;;;;;;9164568;19;20037;-70
2023/11/06 08:42:43;;;;;;;10.57;2.05;;;10.50;88.30;;;;;;9165327;19;20014;-72
2023/11/06 08:45:51;;;;;;;11.20;2.72;;;10.50;88.20;;;;;;9162687;19;20010;-73
2023/11/06 08:48:59;;;;;;;8.45;2.13;;;10.50;88.20;;;;;;9162178;19;20465;-70
2023/11/06 08:52:08;;;;;;;8.68;2.05;;;10.60;88.30;;;;;;9162933;19;20033;-70
2023/11/06 08:55:16;;;;;;;9.27;2.15;;;10.60;88.30;;;;;;9156156;19;20014;-70
2023/11/06 08:58:25;;;;;;;12.88;2.22;;;10.70;88.30;;;;;;9164889;19;20022;-69
2023/11/06 09:01:30;;;;;;;14.15;1.85;;;10.70;88.30;;;;;;9164212;19;20022;-71
2023/11/06 09:04:40;;;;;;;9.43;1.80;;;10.70;88.30;;;;;;9159734;19;20601;-71
2023/11/06 09:07:47;;;;;;;14.13;2.70;;;10.70;88.90;;;;;;9162456;19;20571;-72
2023/11/06 09:10:57;;;;;;;16.35;2.85;;;10.80;88.30;;;;;;9161335;19;20010;-70
2023/11/06 09:14:03;;;;;;;8.25;1.83;;;10.80;88.20;;;;;;9160460;19;20026;-69
2023/11/06 09:17:10;;;;;;;14.55;3.65;;;10.90;88.20;;;;;;9160498;19;20010;-69
2023/11/06 09:20:16;;;;;;;8.15;1.73;;;10.90;88.10;;;;;;9160348;19;20112;-68
2023/11/06 09:23:23;;;;;;;4.82;1.75;;;11.00;88.10;;;;;;9159667;19;20030;-68
2023/11/06 09:26:32;;;;;;;13.70;2.15;;;11.00;88.10;;;;;;9159056;19;20018;-70
2023/11/06 09:29:39;;;;;;;12.57;2.15;;;11.00;88.60;;;;;;9160019;19;20666;-69
2023/11/06 09:32:45;;;;;;;10.40;2.65;;;11.10;88.00;;;;;;9161988;19;20367;-69
2023/11/06 09:35:52;;;;;;;9.07;1.65;;;11.10;88.00;;;;;;9159602;19;20357;-70
2023/11/06 09:38:58;;;;;;;8.63;1.95;;;11.10;88.00;;;;;;9160561;19;20022;-70
2023/11/06 09:42:08;;;;;;;2.88;1.10;;;11.20;88.30;;;;;;9156753;19;20364;-70
2023/11/06 09:45:14;;;;;;;13.23;2.28;;;11.40;89.10;;;;;;9158885;19;20010;-69
2023/11/06 09:48:24;;;;;;;17.20;1.92;;;11.30;87.90;;;;;;9160037;19;20023;-69
2023/11/06 09:51:36;;;;;;;10.35;1.50;;;11.40;87.80;;;;;;9160114;19;20018;-70
2023/11/06 09:54:44;;;;;;;6.10;1.48;;;11.40;87.70;;;;;;9155672;19;20027;-70
2023/11/06 09:57:54;;;;;;;7.60;1.38;;;11.50;88.00;;;;;;9158367;19;20040;-70
2023/11/06 10:01:01;;;;;;;15.93;1.95;;;11.60;88.00;;;;;;9161673;19;20499;-70
2023/11/06 10:04:08;;;;;;;12.18;2.03;;;11.60;88.40;;;;;;9170633;19;20078;-69
2023/11/06 10:07:35;;;;;;;8.70;1.77;;;11.70;87.70;;;;;;9172171;19;20053;-69
2023/11/06 10:10:41;;;;;;;10.57;1.73;;;;;;;;;;9169292;19;20022;-67
2023/11/06 10:13:58;;;;;;;13.10;2.10;;;11.80;86.80;;;;;;9170087;19;21885;-71
2023/11/06 10:17:04;;;;;;;7.55;1.70;;;11.90;87.20;;;;;;9171707;19;20010;-67
2023/11/06 10:20:16;;;;;;;8.52;1.50;;;12.10;87.10;;;;;;9170751;19;20041;-68
2023/11/06 10:23:26;;;;;;;13.55;2.65;;;12.00;86.90;;;;;;9169807;19;20018;-69
2023/11/06 10:26:34;;;;;;;10.88;2.95;;;12.00;86.80;;;;;;9171149;19;20021;-69
2023/11/06 10:29:49;;;;;;;10.52;2.58;;;12.10;86.90;;;;;;9170738;19;20432;-68
2023/11/06 10:32:58;;;;;;;11.13;1.63;;;12.10;86.80;;;;;;9168686;19;20026;-70
2023/11/06 10:36:16;;;;;;;12.98;2.05;;;12.10;86.80;;;;;;9167292;19;20022;-68
2023/11/06 10:39:24;;;;;;;18.42;2.45;;;12.20;86.60;;;;;;9170946;19;20026;-69
2023/11/06 10:42:29;;;;;;;9.85;1.98;;;12.20;86.30;;;;;;9169075;19;20447;-69
2023/11/06 10:45:40;;;;;;;23.10;2.92;;;12.20;86.40;;;;;;9169553;19;20030;-69
2023/11/06 10:48:55;;;;;;;14.00;2.40;;;12.20;86.40;;;;;;9170559;19;20041;-69
2023/11/06 10:52:06;;;;;;;22.20;2.75;;;12.20;86.40;;;;;;9170053;19;20010;-68
2023/11/06 10:55:15;;;;;;;9.45;2.30;;;12.20;86.30;;;;;;9164497;19;20749;-68
2023/11/06 10:58:36;;;;;;;11.98;1.98;;;12.30;86.30;;;;;;9169497;19;20476;-69
2023/11/06 11:01:48;;;;;;;8.93;1.77;;;12.30;86.20;;;;;;9169223;19;20036;-71
2023/11/06 11:04:56;;;;;;;8.02;1.75;;;12.30;86.10;;;;;;9169703;19;20345;-70
2023/11/06 11:08:02;;;;;;;11.68;2.97;;;12.30;86.00;;;;;;9169859;19;20023;-68
2023/11/06 11:11:10;;;;;;;11.05;2.47;;;12.40;86.10;;;;;;9167098;19;20603;-69
2023/11/06 11:14:16;;;;;;;17.20;2.55;;;12.40;86.10;;;;;;9167018;19;20018;-68
2023/11/06 11:17:27;;;;;;;15.50;2.50;;;12.40;86.00;;;;;;9169416;19;20014;-68
2023/11/06 11:20:53;;;;;;;12.73;2.42;;;12.40;85.80;;;;;;9167280;19;20425;-70
2023/11/06 11:24:00;;;;;;;11.18;2.20;;;12.50;85.80;;;;;;9165910;19;20018;-70
2023/11/06 11:27:11;;;;;;;19.55;1.70;;;12.50;85.70;;;;;;9166408;19;20019;-69
2023/11/06 11:30:28;;;;;;;13.00;2.47;;;12.50;85.70;;;;;;9168676;19;20006;-68
2023/11/06 11:33:57;;;;;;;9.43;1.80;;;12.50;85.70;;;;;;9163701;19;20021;-70
2023/11/06 11:37:37;;;;;;;11.88;2.20;;;12.50;85.70;;;;;;9162758;19;20500;-69
2023/11/06 11:41:12;;;;;;;10.85;2.03;;;12.60;85.50;;;;;;9150384;19;20887;-69
2023/11/06 11:44:19;;;;;;;10.40;1.92;;;12.60;85.50;;;;;;9161528;19;20015;-68
2023/11/06 11:47:25;;;;;;;14.60;1.80;;;12.60;85.50;;;;;;9164051;19;20072;-69
2023/11/06 11:50:49;;;;;;;16.25;2.55;;;12.60;85.40;;;;;;9164370;19;20417;-68
2023/11/06 11:53:54;;;;;;;24.42;2.85;;;12.60;85.10;;;;;;9163098;19;20049;-68
2023/11/06 11:57:03;;;;;;;10.68;1.98;;;12.60;85.30;;;;;;9161635;19;20150;-68
2023/11/06 12:00:22;;;;;;;12.60;1.85;;;12.60;85.20;;;;;;9167424;19;20019;-68
2023/11/06 12:03:31;;;;;;;11.07;1.75;;;12.60;85.10;;;;;;9164991;19;20452;-68
2023/11/06 12:06:39;;;;;;;12.65;2.55;;;12.60;85.10;;;;;;9167276;19;20086;-68
2023/11/06 12:09:51;;;;;;;11.57;1.80;;;12.70;85.00;;;;;;9166879;19;20495;-67
2023/11/06 12:12:58;;;;;;;9.02;2.00;;;12.70;84.90;;;;;;9166182;19;20015;-68
2023/11/06 12:16:08;;;;;;;17.05;2.47;;;12.60;85.50;;;;;;9165162;19;20612;-68
2023/11/06 12:19:13;;;;;;;14.32;2.35;;;12.70;84.80;;;;;;9166842;19;20014;-68
2023/11/06 12:22:24;;;;;;;12.15;1.90;;;12.70;84.80;;;;;;9165914;19;20037;-69
2023/11/06 12:25:30;;;;;;;16.80;2.38;;;12.70;84.70;;;;;;9166367;19;20015;-68
2023/11/06 12:28:38;;;;;;;10.68;2.08;;;12.70;84.80;;;;;;9166234;19;20022;-68
2023/11/06 12:31:44;;;;;;;14.25;1.92;;;12.60;89.10;;;;;;9166318;19;20014;-68
2023/11/06 12:35:09;;;;;;;9.98;2.20;;;12.80;90.80;;;;;;9165868;19;20099;-69
2023/11/06 12:38:34;;;;;;;9.63;1.90;;;12.70;84.50;;;;;;9164833;19;20029;-68
2023/11/06 12:41:43;;;;;;;13.73;2.78;;;12.70;84.50;;;;;;9160895;19;20014;-69
2023/11/06 12:44:48;;;;;;;13.07;2.33;;;12.70;84.70;;;;;;9162793;19;20015;-70
2023/11/06 12:47:57;;;;;;;11.55;1.48;;;12.70;84.70;;;;;;9164401;19;20015;-69
2023/11/06 12:51:05;;;;;;;9.65;2.50;;;12.70;84.50;;;;;;9165743;19;20014;-68
2023/11/06 12:54:19;;;;;;;10.95;1.95;;;12.70;84.40;;;;;;9163432;19;20022;-69
2023/11/06 12:57:29;;;;;;;8.25;1.42;;;12.70;84.30;;;;;;9163298;19;21043;-70
2023/11/06 13:00:38;;;;;;;10.85;2.22;;;12.70;84.30;;;;;;9164283;19;20644;-72
2023/11/06 13:03:45;;;;;;;8.27;1.90;;;12.70;84.20;;;;;;9165348;19;20041;-68
2023/11/06 13:06:54;;;;;;;12.90;2.08;;;12.70;84.10;;;;;;9163829;19;20026;-69
2023/11/06 13:10:05;;;;;;;11.15;1.80;;;12.80;84.10;;;;;;9164490;19;20015;-69
2023/11/06 13:13:12;;;;;;;23.95;3.50;;;12.70;84.00;;;;;;9164088;19;20025;-68
2023/11/06 13:16:18;;;;;;;12.23;1.88;;;12.70;84.00;;;;;;9163869;19;20099;-69
2023/11/06 13:19:32;;;;;;;7.40;1.77;;;12.70;83.90;;;;;;9164529;19;20014;-68
2023/11/06 13:22:37;;;;;;;12.73;2.30;;;12.60;83.90;;;;;;9163418;19;20010;-69
2023/11/06 13:25:47;;;;;;;11.48;2.22;;;12.70;84.00;;;;;;9161177;19;20376;-69
2023/11/06 13:28:53;;;;;;;7.82;1.70;;;12.60;84.10;;;;;;9161713;19;20015;-70
2023/11/06 13:32:00;;;;;;;12.93;2.45;;;12.60;84.00;;;;;;9161759;19;20030;-68
2023/11/06 13:35:07;;;;;;;18.10;3.05;;;12.60;83.90;;;;;;9161969;19;20022;-69
2023/11/06 13:38:14;;;;;;;17.77;2.22;;;12.60;84.00;;;;;;9158370;19;20767;-68
2023/11/06 13:41:22;;;;;;;11.80;2.13;;;12.50;83.90;;;;;;9155758;19;20023;-69
2023/11/06 13:44:30;;;;;;;12.60;1.55;;;12.60;84.00;;;;;;9161572;19;20010;-68
2023/11/06 13:47:36;;;;;;;15.13;1.95;;;12.50;83.90;;;;;;9158787;19;20480;-69
2023/11/06 13:50:50;;;;;;;15.18;1.63;;;12.60;84.20;;;;;;9160885;19;20115;-66
2023/11/06 13:54:13;;;;;;;8.90;1.43;;;12.50;83.90;;;;;;9157996;19;20026;-67
2023/11/06 13:57:25;;;;;;;11.57;2.25;;;12.50;83.90;;;;;;9158006;19;20010;-67
2023/11/06 14:00:33;;;;;;;9.73;2.65;;;12.50;83.90;;;;;;9160720;19;20033;-67
2023/11/06 14:03:43;;;;;;;9.10;2.13;;;12.50;83.90;;;;;;9159446;19;20027;-67
2023/11/06 14:06:54;;;;;;;13.80;2.35;;;12.50;83.90;;;;;;9158471;19;20018;-68
2023/11/06 14:10:07;;;;;;;9.13;1.90;;;12.50;83.90;;;;;;9160718;19;20034;-67
2023/11/06 14:13:19;;;;;;;16.05;2.58;;;12.50;83.80;;;;;;9159851;19;20525;-67
2023/11/06 14:16:27;;;;;;;15.15;2.15;;;12.50;83.90;;;;;;9159387;19;20029;-69
2023/11/06 14:19:32;;;;;;;13.13;2.13;;;12.40;83.80;;;;;;9160053;19;20098;-69
2023/11/06 14:22:39;;;;;;;12.88;2.75;;;12.40;83.80;;;;;;9158611;19;20733;-69
2023/11/06 14:25:45;;;;;;;14.73;1.88;;;12.50;84.20;;;;;;9158999;19;20025;-68
2023/11/06 14:28:55;;;;;;;11.98;1.88;;;12.40;83.80;;;;;;9159404;19;20030;-69
2023/11/06 14:32:00;;;;;;;6.38;1.13;;;12.40;83.70;;;;;;9159503;19;20022;-67
2023/11/06 14:35:10;;;;;;;26.40;2.28;;;12.50;83.80;;;;;;9159308;19;20010;-69
2023/11/06 14:38:16;;;;;;;8.38;1.75;;;12.50;83.90;;;;;;9155938;19;20057;-70
2023/11/06 14:41:24;;;;;;;10.98;3.58;;;12.40;83.80;;;;;;9152610;19;20018;-67
2023/11/06 14:44:32;;;;;;;9.43;2.25;;;12.40;83.70;;;;;;9157339;19;20019;-70
2023/11/06 14:47:41;;;;;;;11.98;2.20;;;12.40;83.70;;;;;;9158111;19;20023;-69
2023/11/06 14:50:46;;;;;;;11.20;2.30;;;12.40;83.60;;;;;;9167391;19;20017;-68
2023/11/06 14:53:55;;;;;;;7.53;1.45;;;12.40;83.70;;;;;;9166082;19;20019;-67
2023/11/06 14:57:00;;;;;;;11.80;2.03;;;12.40;83.70;;;;;;9165192;19;20021;-69
2023/11/06 15:00:15;;;;;;;7.72;1.45;;;12.40;83.70;;;;;;9169354;19;20026;-67
2023/11/06 15:03:20;;;;;;;8.38;1.48;;;12.40;83.70;;;;;;9169502;19;20048;-68
2023/11/06 15:06:28;;;;;;;5.78;1.50;;;12.30;83.70;;;;;;9168184;19;20036;-70
2023/11/06 15:09:34;;;;;;;6.57;1.63;;;12.30;83.80;;;;;;9169887;19;20586;-67
2023/11/06 15:12:42;;;;;;;10.32;1.67;;;12.30;84.00;;;;;;9168733;19;20022;-68
2023/11/06 15:15:54;;;;;;;11.27;2.35;;;12.30;83.70;;;;;;9167514;19;20018;-68
2023/11/06 15:19:01;;;;;;;7.68;1.63;;;12.30;83.60;;;;;;9166413;19;20025;-68
2023/11/06 15:22:08;;;;;;;8.23;1.95;;;12.30;83.80;;;;;;9167396;19;20725;-67
2023/11/06 15:25:16;;;;;;;12.20;1.90;;;12.30;83.80;;;;;;9167588;19;20480;-67
2023/11/06 15:28:22;;;;;;;10.52;1.88;;;12.30;83.70;;;;;;9168807;19;20018;-67
2023/11/06 15:31:33;;;;;;;6.00;1.80;;;12.30;83.60;;;;;;9169393;19;20014;-67
2023/11/06 15:34:39;;;;;;;9.23;2.60;;;12.30;83.60;;;;;;9168574;19;20518;-68
2023/11/06 15:37:47;;;;;;;15.05;2.47;;;12.30;83.60;;;;;;9164974;19;20017;-68
2023/11/06 15:40:54;;;;;;;6.47;1.20;;;12.30;83.60;;;;;;9162589;19;20019;-69
2023/11/06 15:44:02;;;;;;;13.52;2.35;;;12.20;83.60;;;;;;9165114;19;20038;-67
2023/11/06 15:47:10;;;;;;;13.70;2.05;;;12.20;83.60;;;;;;9166539;19;20022;-67
2023/11/06 15:50:19;;;;;;;10.88;2.15;;;12.20;84.20;;;;;;9166584;19;20021;-67
2023/11/06 15:53:25;;;;;;;11.05;1.85;;;12.20;83.60;;;;;;9166117;19;20018;-67
2023/11/06 15:56:33;;;;;;;3.30;1.52;;;12.20;83.50;;;;;;9166484;19;20578;-69
2023/11/06 15:59:39;;;;;;;11.43;1.80;;;12.10;83.90;;;;;;9158633;19;20480;-67
2023/11/06 16:02:49;;;;;;;9.68;1.83;;;12.10;83.50;;;;;;9165717;19;20014;-67
2023/11/06 16:05:55;;;;;;;5.97;2.63;;;12.00;83.50;;;;;;9166550;19;20021;-67
2023/11/06 16:09:05;;;;;;;8.68;1.42;;;12.00;83.50;;;;;;9167463;19;20351;-67
2023/11/06 16:12:11;;;;;;;10.57;1.80;;;12.00;83.50;;;;;;9166934;19;20045;-68
2023/11/06 16:15:18;;;;;;;7.05;1.60;;;12.00;83.50;;;;;;9167094;19;20459;-66